sensor_id;sensor_type;location;lat;lon;timestamp;temperature;humidity
6355;DHT22;3210;48.708;9.030;2023-04-25T00:01:46;8.00;1.00
6355;DHT22;3210;48.708;9.030;2023-04-25T00:04:13;8.00;1.00
6355;DHT22;3210;48.708;9.030;2023-04-25T00:06:39;8.00;1.00
6355;DHT22;3210;48.708;9.030;2023-04-25T00:09:07;7.80;1.00
6355;DHT22;3210;48.708;9.030;2023-04-25T00:11:36;7.80;1.00
6355;DHT22;3210;48.708;9.030;2023-04-25T00:14:03;7.90;1.00
6355;DHT22;3210;48.708;9.030;2023-04-25T00:16:32;8.00;1.00
6355;DHT22;3210;48.708;9.030;2023-04-25T00:19:00;8.00;1.00
6355;DHT22;3210;48.708;9.030;2023-04-25T00:21:27;7.90;1.00
6355;DHT22;3210;48.708;9.030;2023-04-25T00:23:55;7.80;1.00
6355;DHT22;3210;48.708;9.030;2023-04-25T00:26:23;7.70;1.00
6355;DHT22;3210;48.708;9.030;2023-04-25T00:28:50;7.70;1.00
6355;DHT22;3210;48.708;9.030;2023-04-25T00:31:17;7.70;1.00
6355;DHT22;3210;48.708;9.030;2023-04-25T00:33:43;7.70;1.00
6355;DHT22;3210;48.708;9.030;2023-04-25T00:36:10;7.70;1.00
6355;DHT22;3210;48.708;9.030;2023-04-25T00:38:37;7.60;1.00
6355;DHT22;3210;48.708;9.030;2023-04-25T00:41:05;7.70;1.00
6355;DHT22;3210;48.708;9.030;2023-04-25T00:43:34;7.70;1.00
6355;DHT22;3210;48.708;9.030;2023-04-25T00:46:02;7.70;1.00
6355;DHT22;3210;48.708;9.030;2023-04-25T00:48:29;7.70;1.00
6355;DHT22;3210;48.708;9.030;2023-04-25T00:50:57;7.70;1.00
6355;DHT22;3210;48.708;9.030;2023-04-25T00:53:27;7.70;1.00
6355;DHT22;3210;48.708;9.030;2023-04-25T00:55:54;7.70;1.00
6355;DHT22;3210;48.708;9.030;2023-04-25T00:58:22;7.70;1.00
6355;DHT22;3210;48.708;9.030;2023-04-25T01:00:51;7.70;1.00
6355;DHT22;3210;48.708;9.030;2023-04-25T01:03:18;7.80;1.00
6355;DHT22;3210;48.708;9.030;2023-04-25T01:05:46;7.80;1.00
6355;DHT22;3210;48.708;9.030;2023-04-25T01:08:14;7.80;1.00
6355;DHT22;3210;48.708;9.030;2023-04-25T01:10:41;7.80;1.00
6355;DHT22;3210;48.708;9.030;2023-04-25T01:13:08;7.80;1.00
6355;DHT22;3210;48.708;9.030;2023-04-25T01:15:35;7.90;1.00
6355;DHT22;3210;48.708;9.030;2023-04-25T01:18:04;7.80;1.00
6355;DHT22;3210;48.708;9.030;2023-04-25T01:20:32;7.80;1.00
6355;DHT22;3210;48.708;9.030;2023-04-25T01:23:00;7.80;1.00
6355;DHT22;3210;48.708;9.030;2023-04-25T01:25:29;7.80;1.00
6355;DHT22;3210;48.708;9.030;2023-04-25T01:27:56;7.80;1.00
6355;DHT22;3210;48.708;9.030;2023-04-25T01:30:24;7.70;1.00
6355;DHT22;3210;48.708;9.030;2023-04-25T01:32:53;7.60;1.00
6355;DHT22;3210;48.708;9.030;2023-04-25T01:35:20;7.70;1.00
6355;DHT22;3210;48.708;9.030;2023-04-25T01:37:49;7.80;1.00
6355;DHT22;3210;48.708;9.030;2023-04-25T01:40:17;7.70;1.00
6355;DHT22;3210;48.708;9.030;2023-04-25T01:42:46;7.70;1.00
6355;DHT22;3210;48.708;9.030;2023-04-25T01:45:12;7.70;1.00
6355;DHT22;3210;48.708;9.030;2023-04-25T01:47:39;7.60;1.00
6355;DHT22;3210;48.708;9.030;2023-04-25T01:50:09;7.60;1.00
6355;DHT22;3210;48.708;9.030;2023-04-25T01:52:36;7.50;1.00
6355;DHT22;3210;48.708;9.030;2023-04-25T01:55:04;7.40;1.00
6355;DHT22;3210;48.708;9.030;2023-04-25T01:57:32;7.30;1.00
6355;DHT22;3210;48.708;9.030;2023-04-25T02:00:00;7.20;1.00
6355;DHT22;3210;48.708;9.030;2023-04-25T02:02:28;7.20;1.00
6355;DHT22;3210;48.708;9.030;2023-04-25T02:04:54;7.20;1.00
6355;DHT22;3210;48.708;9.030;2023-04-25T02:07:21;7.10;1.00
6355;DHT22;3210;48.708;9.030;2023-04-25T02:09:48;7.10;1.00
6355;DHT22;3210;48.708;9.030;2023-04-25T02:12:15;7.10;1.00
6355;DHT22;3210;48.708;9.030;2023-04-25T02:14:43;7.10;1.00
6355;DHT22;3210;48.708;9.030;2023-04-25T02:17:10;7.00;1.00
6355;DHT22;3210;48.708;9.030;2023-04-25T02:19:37;7.10;1.00
6355;DHT22;3210;48.708;9.030;2023-04-25T02:22:04;7.10;1.00
6355;DHT22;3210;48.708;9.030;2023-04-25T02:24:31;7.20;1.00
6355;DHT22;3210;48.708;9.030;2023-04-25T02:26:59;7.20;1.00
6355;DHT22;3210;48.708;9.030;2023-04-25T02:29:26;7.20;1.00
6355;DHT22;3210;48.708;9.030;2023-04-25T02:31:54;7.10;1.00
6355;DHT22;3210;48.708;9.030;2023-04-25T02:34:21;7.10;1.00
6355;DHT22;3210;48.708;9.030;2023-04-25T02:36:48;7.10;1.00
6355;DHT22;3210;48.708;9.030;2023-04-25T02:39:16;7.00;1.00
6355;DHT22;3210;48.708;9.030;2023-04-25T02:41:43;7.00;1.00
6355;DHT22;3210;48.708;9.030;2023-04-25T02:44:09;7.00;1.00
6355;DHT22;3210;48.708;9.030;2023-04-25T02:46:36;7.00;1.00
6355;DHT22;3210;48.708;9.030;2023-04-25T02:49:05;6.90;1.00
6355;DHT22;3210;48.708;9.030;2023-04-25T02:51:31;6.90;1.00
6355;DHT22;3210;48.708;9.030;2023-04-25T02:53:58;7.00;1.00
6355;DHT22;3210;48.708;9.030;2023-04-25T02:56:25;6.90;1.00
6355;DHT22;3210;48.708;9.030;2023-04-25T02:58:52;7.00;1.00
6355;DHT22;3210;48.708;9.030;2023-04-25T03:01:19;7.00;1.00
6355;DHT22;3210;48.708;9.030;2023-04-25T03:03:46;7.00;1.00
6355;DHT22;3210;48.708;9.030;2023-04-25T03:06:14;6.90;1.00
6355;DHT22;3210;48.708;9.030;2023-04-25T03:08:41;7.00;1.00
6355;DHT22;3210;48.708;9.030;2023-04-25T03:11:08;7.00;1.00
6355;DHT22;3210;48.708;9.030;2023-04-25T03:13:35;7.00;1.00
6355;DHT22;3210;48.708;9.030;2023-04-25T03:16:01;7.10;1.00
6355;DHT22;3210;48.708;9.030;2023-04-25T03:18:28;7.20;1.00
6355;DHT22;3210;48.708;9.030;2023-04-25T03:20:55;7.10;1.00
6355;DHT22;3210;48.708;9.030;2023-04-25T03:23:23;7.10;1.00
6355;DHT22;3210;48.708;9.030;2023-04-25T03:25:50;7.10;1.00
6355;DHT22;3210;48.708;9.030;2023-04-25T03:28:17;7.10;1.00
6355;DHT22;3210;48.708;9.030;2023-04-25T03:30:44;7.10;1.00
6355;DHT22;3210;48.708;9.030;2023-04-25T03:33:11;7.10;1.00
6355;DHT22;3210;48.708;9.030;2023-04-25T03:35:37;7.00;1.00
6355;DHT22;3210;48.708;9.030;2023-04-25T03:38:04;7.00;1.00
6355;DHT22;3210;48.708;9.030;2023-04-25T03:40:32;7.00;1.00
6355;DHT22;3210;48.708;9.030;2023-04-25T03:42:59;7.10;1.00
6355;DHT22;3210;48.708;9.030;2023-04-25T03:45:26;7.00;1.00
6355;DHT22;3210;48.708;9.030;2023-04-25T03:47:53;7.20;1.00
6355;DHT22;3210;48.708;9.030;2023-04-25T03:50:19;7.20;1.00
6355;DHT22;3210;48.708;9.030;2023-04-25T03:52:46;7.00;1.00
6355;DHT22;3210;48.708;9.030;2023-04-25T03:55:13;7.00;1.00
6355;DHT22;3210;48.708;9.030;2023-04-25T03:57:41;7.00;1.00
6355;DHT22;3210;48.708;9.030;2023-04-25T04:00:08;6.90;1.00
6355;DHT22;3210;48.708;9.030;2023-04-25T04:02:35;7.00;1.00
6355;DHT22;3210;48.708;9.030;2023-04-25T04:05:03;7.00;1.00
6355;DHT22;3210;48.708;9.030;2023-04-25T04:07:30;7.00;1.00
6355;DHT22;3210;48.708;9.030;2023-04-25T04:09:58;7.10;1.00
6355;DHT22;3210;48.708;9.030;2023-04-25T04:12:25;7.10;1.00
6355;DHT22;3210;48.708;9.030;2023-04-25T04:14:53;7.00;1.00
6355;DHT22;3210;48.708;9.030;2023-04-25T04:17:19;7.00;1.00
6355;DHT22;3210;48.708;9.030;2023-04-25T04:19:46;6.90;1.00
6355;DHT22;3210;48.708;9.030;2023-04-25T04:22:13;7.00;1.00
6355;DHT22;3210;48.708;9.030;2023-04-25T04:24:40;6.90;1.00
6355;DHT22;3210;48.708;9.030;2023-04-25T04:27:09;7.00;1.00
6355;DHT22;3210;48.708;9.030;2023-04-25T04:29:38;6.90;1.00
6355;DHT22;3210;48.708;9.030;2023-04-25T04:32:06;6.80;1.00
6355;DHT22;3210;48.708;9.030;2023-04-25T04:34:34;6.70;1.00
6355;DHT22;3210;48.708;9.030;2023-04-25T04:37:00;6.70;2.50
6355;DHT22;3210;48.708;9.030;2023-04-25T04:39:27;6.70;6.90
6355;DHT22;3210;48.708;9.030;2023-04-25T04:41:54;6.60;12.00
6355;DHT22;3210;48.708;9.030;2023-04-25T04:44:21;6.60;18.80
6355;DHT22;3210;48.708;9.030;2023-04-25T04:46:48;6.60;27.10
6355;DHT22;3210;48.708;9.030;2023-04-25T04:49:16;6.70;36.10
6355;DHT22;3210;48.708;9.030;2023-04-25T04:51:43;6.70;48.70
6355;DHT22;3210;48.708;9.030;2023-04-25T04:54:10;6.70;52.00
6355;DHT22;3210;48.708;9.030;2023-04-25T04:56:37;6.80;52.50
6355;DHT22;3210;48.708;9.030;2023-04-25T04:59:04;6.90;46.00
6355;DHT22;3210;48.708;9.030;2023-04-25T05:01:31;7.10;25.30
6355;DHT22;3210;48.708;9.030;2023-04-25T05:03:57;7.20;10.10
6355;DHT22;3210;48.708;9.030;2023-04-25T05:06:27;7.40;1.00
6355;DHT22;3210;48.708;9.030;2023-04-25T05:08:54;7.30;1.00
6355;DHT22;3210;48.708;9.030;2023-04-25T05:11:21;7.30;1.00
6355;DHT22;3210;48.708;9.030;2023-04-25T05:13:49;7.40;1.00
6355;DHT22;3210;48.708;9.030;2023-04-25T05:16:15;7.40;1.00
6355;DHT22;3210;48.708;9.030;2023-04-25T05:18:42;7.40;1.00
6355;DHT22;3210;48.708;9.030;2023-04-25T05:21:09;7.50;1.00
6355;DHT22;3210;48.708;9.030;2023-04-25T05:23:37;7.50;8.20
6355;DHT22;3210;48.708;9.030;2023-04-25T05:26:04;7.60;1.00
6355;DHT22;3210;48.708;9.030;2023-04-25T05:28:39;7.60;1.00
6355;DHT22;3210;48.708;9.030;2023-04-25T05:31:06;7.60;11.50
6355;DHT22;3210;48.708;9.030;2023-04-25T05:33:33;7.60;30.10
6355;DHT22;3210;48.708;9.030;2023-04-25T05:36:00;7.70;28.00
6355;DHT22;3210;48.708;9.030;2023-04-25T05:38:27;7.70;13.00
6355;DHT22;3210;48.708;9.030;2023-04-25T05:40:55;7.40;26.00
6355;DHT22;3210;48.708;9.030;2023-04-25T05:43:21;7.40;65.20
6355;DHT22;3210;48.708;9.030;2023-04-25T05:45:48;7.50;96.20
6355;DHT22;3210;48.708;9.030;2023-04-25T05:48:15;7.50;74.60
6355;DHT22;3210;48.708;9.030;2023-04-25T05:50:42;7.30;63.10
6355;DHT22;3210;48.708;9.030;2023-04-25T05:53:09;7.20;99.90
6355;DHT22;3210;48.708;9.030;2023-04-25T05:55:36;7.10;99.90
6355;DHT22;3210;48.708;9.030;2023-04-25T05:58:05;7.10;99.90
6355;DHT22;3210;48.708;9.030;2023-04-25T06:00:32;7.00;99.90
6355;DHT22;3210;48.708;9.030;2023-04-25T06:02:59;6.90;99.90
6355;DHT22;3210;48.708;9.030;2023-04-25T06:05:26;7.10;99.90
6355;DHT22;3210;48.708;9.030;2023-04-25T06:07:53;6.90;99.90
6355;DHT22;3210;48.708;9.030;2023-04-25T06:10:20;7.00;99.90
6355;DHT22;3210;48.708;9.030;2023-04-25T06:12:48;6.90;99.90
6355;DHT22;3210;48.708;9.030;2023-04-25T06:15:16;6.90;99.90
6355;DHT22;3210;48.708;9.030;2023-04-25T06:17:43;6.90;99.90
6355;DHT22;3210;48.708;9.030;2023-04-25T06:20:10;6.90;99.90
6355;DHT22;3210;48.708;9.030;2023-04-25T06:22:37;6.90;99.90
6355;DHT22;3210;48.708;9.030;2023-04-25T06:25:04;7.00;99.90
